Bengaluru International Airport
VOBL : now visible

Airfield :











YOU CAN JOIN US ON...

 
LOGIN :

Register | Disclaimer

   EN    FR    IT 

 









Legend :    VFR   Marginal VFR   IFR   Intensive IFR   Very Intensive IFR
Visi :
Ceiling :
>= 8 km
>= 3000ft
5 to 8 km
1000 to 3000 ft
1500m to 5 km
500 to 1000 ft
800 to 1500m
200 to 500 ft
< 800m
< 200 ft
Symbols :   Thunderstorms  Fog  Heavy snow  Heavy precipitations  Wind > 20 kt






- Airport Elevation : 0 ft
- IATA code : BLR


VOBL - Bengaluru International

CURRENT METAR :
  • 250530Z 25016KT 9999 SCT012 SCT018 27/19 Q1008 NOSIG

EXPIRED METARs :
  • 250500Z 25018KT 9999 SCT012 SCT018 27/19 Q1009 NOSIG
  • 250430Z 25015KT 9999 SCT012 26/20 Q1009 NOSIG
  • 250400Z 25012KT 8000 FEW010 SCT012 25/19 Q1009 NOSIG
  • 250330Z 25012KT 8000 FEW010 SCT012 25/19 Q1009 NOSIG
  • 250230Z 25014KT 6000 SCT010 SCT012 22/19 Q1009 NOSIG
  • 250200Z 25013KT 6000 SCT010 SCT012 22/19 Q1009 NOSIG
  • 250130Z 25011KT 6000 SCT010 SCT012 22/20 Q1009 NOSIG
  • 250100Z 25012KT 6000 SCT010 SCT012 22/20 Q1008 NOSIG
  • 250030Z 25010KT 6000 SCT010 SCT012 21/19 Q1008 NOSIG

TAF TAF VOBL
Valid from the 25 at 06:00 until the 26 at 12:00 UTC


250500Z 2506/2612 27010KT 6000 SCT012 SCT080
TEMPO 2509/2515 3000 RA DZ SCT008 SCT012 BKN080
TEMPO 2600/2603 BKN008 SCT012 BKN080
TEMPO 2609/2612 3000 RA DZ SCT008 SCT012 BKN080
VOMF FIR / Asia



MET'MAP, your aeronautical weather chart ! - Copyright ORBIFLY December 2007 - Disclaimer

ORBIFLY MET'MAP TEAM :

Programming & Development : Alexandra Zaïnal
Original concept : Baudouin d'Aumeries
Technical & hardware support : Manuel Goepfert
Assistance : Marc-Olivier Méhu




SOURCES & CREDITS :

   NOAA       Earth
Advisory